Central Valley, Utah
Current Conditions -  °F | °C
As of 2:52 AM on Wednesday 22 Oct 2014 (Local Time) from KMLF Reporting Station
Clear Clear  
Wind Chill: 40°   Ceiling: Unl
Heat Index: 40°   Visibility: 10mi
Dew Point: 27°   Wind: 0mph
Humidity: 60%   Direction: NA
Pressure: 30.1"   Gusts: NA
Location:  38.6125°N, 112.081°W
Report Text: KMLF 220852Z AUTO 00000KT 10SM CLR 04/M03 A3010 RMK AO2 SLP153 T00441028 53011 TSNO
Loading
Personal Weather Stations






























Interactive Weather Map
Tropical Storm Tracking
New forecast layout! Learn more

10-Day Weather Forecast

Advertisements
Track Severe Weather on mobile